createdAt,value
2023-04-04T00:00:57.981Z,49.24
2023-04-04T00:03:26.596Z,49.38
2023-04-04T00:05:56.773Z,49.56
2023-04-04T00:08:25.371Z,49.19
2023-04-04T00:10:59.272Z,49.48
2023-04-04T00:13:27.854Z,49.63
2023-04-04T00:15:56.362Z,49.87
2023-04-04T00:18:24.934Z,49.86
2023-04-04T00:20:56.289Z,50.34
2023-04-04T00:23:24.748Z,50.44
2023-04-04T00:25:53.564Z,50.61
2023-04-04T00:28:22.229Z,50.72
2023-04-04T00:30:50.607Z,50.50
2023-04-04T00:33:19.091Z,50.43
2023-04-04T00:35:49.639Z,50.49
2023-04-04T00:38:19.614Z,50.48
2023-04-04T00:40:49.745Z,50.51
2023-04-04T00:43:18.112Z,50.38
2023-04-04T00:45:46.564Z,50.46
2023-04-04T00:48:15.292Z,50.41
2023-04-04T00:50:43.763Z,50.37
2023-04-04T00:53:12.247Z,50.26
2023-04-04T00:55:43.698Z,50.34
2023-04-04T00:58:12.584Z,50.29
2023-04-04T01:00:41.201Z,50.46
2023-04-04T01:03:12.786Z,50.54
2023-04-04T01:05:42.840Z,50.39
2023-04-04T01:08:11.844Z,50.05
2023-04-04T01:10:42.517Z,50.28
2023-04-04T01:13:11.568Z,50.06
2023-04-04T01:15:41.263Z,50.43
2023-04-04T01:18:10.321Z,50.21
2023-04-04T01:20:41.912Z,50.58
2023-04-04T01:23:10.600Z,50.37
2023-04-04T01:25:41.439Z,50.48
2023-04-04T01:28:14.853Z,50.88
2023-04-04T01:30:44.096Z,50.84
2023-04-04T01:33:18.012Z,50.95
2023-04-04T01:35:52.067Z,50.86
2023-04-04T01:38:24.179Z,50.75
2023-04-04T01:40:59.241Z,50.62
2023-04-04T01:43:27.837Z,50.45
2023-04-04T01:45:56.216Z,50.38
2023-04-04T01:48:24.802Z,50.54
2023-04-04T01:50:56.751Z,50.60
2023-04-04T01:53:27.582Z,50.53
2023-04-04T01:55:57.504Z,50.33
2023-04-04T01:58:26.907Z,50.46
2023-04-04T02:00:55.500Z,50.57
2023-04-04T02:03:24.004Z,50.91
2023-04-04T02:05:52.864Z,51.40
2023-04-04T02:08:21.752Z,51.18
2023-04-04T02:10:55.659Z,51.36
2023-04-04T02:13:25.982Z,51.67
2023-04-04T02:15:54.953Z,51.80
2023-04-04T02:18:23.444Z,51.91
2023-04-04T02:20:57.791Z,52.03
2023-04-04T02:23:26.343Z,51.75
2023-04-04T02:25:56.269Z,51.73
2023-04-04T02:28:26.282Z,51.55
2023-04-04T02:30:55.036Z,51.52
2023-04-04T02:33:23.547Z,51.18
2023-04-04T02:35:52.718Z,51.30
2023-04-04T02:38:21.029Z,51.40
2023-04-04T02:40:50.425Z,51.35
2023-04-04T02:43:18.882Z,51.37
2023-04-04T02:45:51.066Z,51.29
2023-04-04T02:48:25.975Z,51.66
2023-04-04T02:50:57.862Z,51.54
2023-04-04T02:53:26.443Z,51.82
2023-04-04T02:55:57.502Z,51.74
2023-04-04T02:58:26.174Z,51.36
2023-04-04T03:00:59.379Z,51.31
2023-04-04T03:03:31.767Z,51.32
2023-04-04T03:06:01.145Z,51.25
2023-04-04T03:08:29.653Z,51.39
2023-04-04T03:11:00.663Z,51.73
2023-04-04T03:13:29.610Z,51.70
2023-04-04T03:16:04.692Z,51.75
2023-04-04T03:18:43.516Z,51.83
2023-04-04T03:21:12.712Z,51.71
2023-04-04T03:23:41.296Z,51.66
2023-04-04T03:26:09.880Z,51.62
2023-04-04T03:28:39.495Z,51.59
2023-04-04T03:31:09.607Z,51.55
2023-04-04T03:33:43.134Z,51.73
2023-04-04T03:36:13.423Z,51.65
2023-04-04T03:38:41.918Z,51.61
2023-04-04T03:41:11.819Z,51.75
2023-04-04T03:43:40.410Z,51.93
2023-04-04T03:46:11.581Z,51.89
2023-04-04T03:48:40.033Z,51.77
2023-04-04T03:51:11.378Z,51.69
2023-04-04T03:53:40.375Z,51.73
2023-04-04T03:56:09.375Z,51.85
2023-04-04T03:58:37.938Z,51.65
2023-04-04T04:01:06.739Z,51.80
2023-04-04T04:03:37.504Z,52.04
2023-04-04T04:06:06.560Z,52.31
2023-04-04T04:08:35.037Z,52.36
2023-04-04T04:11:06.592Z,52.31
2023-04-04T04:13:36.102Z,52.52
2023-04-04T04:16:05.205Z,52.44
2023-04-04T04:18:34.601Z,52.22
2023-04-04T04:21:06.154Z,52.58
2023-04-04T04:23:35.458Z,52.50
2023-04-04T04:26:03.924Z,52.61
2023-04-04T04:28:33.547Z,52.57
2023-04-04T04:31:09.404Z,52.45
2023-04-04T04:33:44.549Z,52.48
2023-04-04T04:36:15.476Z,52.60
2023-04-04T04:38:53.160Z,52.64
2023-04-04T04:41:22.259Z,52.42
2023-04-04T04:43:52.990Z,52.49
2023-04-04T04:46:22.736Z,52.65
2023-04-04T04:48:51.932Z,52.52
2023-04-04T04:51:27.643Z,52.50
2023-04-04T04:53:58.583Z,52.39
2023-04-04T04:56:29.121Z,52.39
2023-04-04T04:59:07.622Z,52.50
2023-04-04T05:01:39.348Z,52.41
2023-04-04T05:04:08.081Z,52.43
2023-04-04T05:06:49.423Z,52.32
2023-04-04T05:09:17.948Z,52.29
2023-04-04T05:11:46.713Z,52.29
2023-04-04T05:14:15.893Z,52.32
2023-04-04T05:16:54.816Z,52.45
2023-04-04T05:19:27.351Z,52.29
2023-04-04T05:22:00.331Z,52.41
2023-04-04T05:24:34.832Z,52.18
2023-04-04T05:27:03.911Z,52.44
2023-04-04T05:29:39.259Z,52.42
2023-04-04T05:32:08.969Z,52.33
2023-04-04T05:34:39.508Z,52.59
2023-04-04T05:37:14.944Z,52.33
2023-04-04T05:39:48.043Z,52.43
2023-04-04T05:42:17.126Z,52.38
2023-04-04T05:44:50.856Z,52.65
2023-04-04T05:47:22.229Z,52.34
2023-04-04T05:49:52.306Z,52.45
2023-04-04T05:52:22.932Z,52.33
2023-04-04T05:54:52.633Z,52.27
2023-04-04T05:57:28.707Z,52.40
2023-04-04T05:59:59.442Z,52.21
2023-04-04T06:02:29.316Z,52.30
2023-04-04T06:05:02.964Z,52.21
2023-04-04T06:07:36.342Z,52.19
2023-04-04T06:10:05.143Z,52.29
2023-04-04T06:12:36.262Z,52.27
2023-04-04T06:15:10.387Z,52.20
2023-04-04T06:17:39.915Z,52.19
2023-04-04T06:20:10.122Z,52.42
2023-04-04T06:22:40.537Z,51.96
2023-04-04T06:25:11.682Z,52.06
2023-04-04T06:27:41.094Z,52.23
2023-04-04T06:30:12.107Z,52.34
2023-04-04T06:32:41.857Z,52.26
2023-04-04T06:35:14.191Z,52.16
2023-04-04T06:37:48.519Z,52.04
2023-04-04T06:40:22.517Z,52.24
2023-04-04T06:42:52.302Z,52.20
2023-04-04T06:45:23.996Z,52.06
2023-04-04T06:47:53.889Z,52.26
2023-04-04T06:50:22.507Z,51.85
2023-04-04T06:52:52.866Z,52.03
2023-04-04T06:55:23.446Z,52.34
2023-04-04T06:57:51.918Z,52.15
2023-04-04T07:00:21.433Z,52.09
2023-04-04T07:02:50.827Z,52.32
2023-04-04T07:05:19.422Z,52.06
2023-04-04T07:07:48.112Z,52.29
2023-04-04T07:10:18.628Z,52.08
2023-04-04T07:12:47.511Z,51.93
2023-04-04T07:15:16.220Z,52.25
2023-04-04T07:17:45.046Z,51.76
2023-04-04T07:20:13.896Z,51.86
2023-04-04T07:22:42.635Z,51.55
2023-04-04T07:25:12.480Z,51.53
2023-04-04T07:27:43.342Z,51.57
2023-04-04T07:30:13.650Z,51.51
2023-04-04T07:32:42.261Z,51.66
2023-04-04T07:35:11.328Z,51.62
2023-04-04T07:37:40.839Z,51.50
2023-04-04T07:40:10.546Z,51.62
2023-04-04T07:42:42.699Z,51.69
2023-04-04T07:45:11.917Z,51.72
2023-04-04T07:47:44.397Z,51.74
2023-04-04T07:50:14.914Z,51.42
2023-04-04T07:52:43.377Z,51.54
2023-04-04T07:55:11.863Z,51.82
2023-04-04T07:57:40.887Z,51.71
2023-04-04T08:00:14.253Z,52.15
2023-04-04T08:02:43.456Z,52.03
2023-04-04T08:05:12.131Z,51.93
2023-04-04T08:07:40.916Z,51.93
2023-04-04T08:10:10.876Z,51.58
2023-04-04T08:12:44.330Z,51.84
2023-04-04T08:15:14.557Z,51.11
2023-04-04T08:17:45.307Z,51.32
2023-04-04T08:20:14.607Z,50.95
2023-04-04T08:22:51.579Z,51.11
2023-04-04T08:25:25.471Z,51.19
2023-04-04T08:28:06.818Z,50.90
2023-04-04T08:30:46.096Z,51.13
2023-04-04T08:33:34.462Z,51.04
2023-04-04T08:36:15.172Z,51.45
2023-04-04T08:38:43.849Z,51.10
2023-04-04T08:41:12.475Z,50.79
2023-04-04T08:43:41.672Z,50.85
2023-04-04T08:46:11.777Z,50.72
2023-04-04T08:48:40.876Z,50.94
2023-04-04T08:51:09.666Z,50.80
2023-04-04T08:53:39.389Z,50.68
2023-04-04T08:56:10.241Z,50.64
2023-04-04T08:58:40.169Z,50.63
2023-04-04T09:01:08.945Z,50.28
2023-04-04T09:03:38.640Z,50.45
2023-04-04T09:06:07.821Z,49.89
2023-04-04T09:08:36.428Z,49.87
2023-04-04T09:11:05.300Z,50.04
2023-04-04T09:13:37.943Z,49.69
2023-04-04T09:16:07.411Z,49.91
2023-04-04T09:18:47.543Z,49.42
2023-04-04T09:21:16.832Z,49.42
2023-04-04T09:23:46.093Z,49.38
2023-04-04T09:26:17.374Z,49.33
2023-04-04T09:28:46.817Z,48.78
2023-04-04T09:31:16.192Z,48.57
2023-04-04T09:33:48.592Z,48.22
2023-04-04T09:36:21.361Z,48.11
2023-04-04T09:38:51.657Z,47.96
2023-04-04T09:41:22.489Z,47.48
2023-04-04T09:43:51.604Z,47.17
2023-04-04T09:46:22.375Z,46.43
2023-04-04T09:48:55.986Z,46.87
2023-04-04T09:51:27.579Z,47.01
2023-04-04T09:53:58.804Z,46.52
2023-04-04T09:56:38.255Z,46.09
2023-04-04T09:59:09.662Z,45.14
2023-04-04T10:01:45.824Z,45.06
2023-04-04T10:04:17.970Z,44.99
2023-04-04T10:06:46.849Z,44.38
2023-04-04T10:09:16.538Z,43.88
2023-04-04T10:11:45.628Z,43.89
2023-04-04T10:14:20.162Z,43.38
2023-04-04T10:16:48.852Z,43.33
2023-04-04T10:19:19.465Z,43.24
2023-04-04T10:21:49.584Z,42.46
2023-04-04T10:24:19.240Z,42.79
2023-04-04T10:27:55.457Z,42.27
2023-04-04T10:30:24.092Z,42.13
2023-04-04T10:32:57.420Z,42.03
2023-04-04T10:35:28.558Z,42.08
2023-04-04T10:37:59.627Z,42.13
2023-04-04T10:40:33.514Z,41.89
2023-04-04T10:43:04.256Z,42.00
2023-04-04T10:45:33.445Z,42.14
2023-04-04T10:48:02.436Z,42.36
2023-04-04T10:50:34.805Z,42.77
2023-04-04T10:53:06.531Z,42.95
2023-04-04T10:55:37.948Z,42.54
2023-04-04T10:58:06.702Z,43.05
2023-04-04T11:00:36.205Z,42.62
2023-04-04T11:03:05.269Z,41.61
2023-04-04T11:05:41.187Z,40.43
2023-04-04T11:08:10.987Z,40.67
2023-04-04T11:10:39.951Z,41.00
2023-04-04T11:13:14.014Z,40.72
2023-04-04T11:15:56.833Z,41.50
2023-04-04T11:18:40.620Z,41.24
2023-04-04T11:21:16.817Z,40.28
2023-04-04T11:24:19.178Z,40.98
2023-04-04T11:26:47.627Z,41.62
2023-04-04T11:29:24.209Z,41.45
2023-04-04T11:31:53.460Z,40.51
2023-04-04T11:34:32.441Z,40.29
2023-04-04T11:37:16.260Z,39.83
2023-04-04T11:39:50.821Z,39.58
2023-04-04T11:42:19.324Z,38.98
2023-04-04T11:45:04.554Z,38.89
2023-04-04T11:47:33.053Z,38.53
2023-04-04T11:50:02.236Z,38.76
2023-04-04T11:52:36.662Z,37.38
2023-04-04T11:55:18.654Z,36.49
2023-04-04T11:57:48.308Z,36.52
2023-04-04T12:00:30.606Z,36.42
2023-04-04T12:02:59.547Z,37.03
2023-04-04T12:05:28.999Z,37.64
2023-04-04T12:08:05.636Z,38.70
2023-04-04T12:10:35.964Z,38.90
2023-04-04T12:13:07.322Z,38.48
2023-04-04T12:15:36.866Z,37.31
2023-04-04T12:18:09.985Z,36.18
2023-04-04T12:20:43.384Z,36.30
2023-04-04T12:23:13.453Z,36.45
2023-04-04T12:25:44.387Z,36.73
2023-04-04T12:28:13.241Z,36.14
2023-04-04T12:30:41.816Z,37.10
2023-04-04T12:33:10.294Z,37.40
2023-04-04T12:35:39.922Z,36.98
2023-04-04T12:38:11.068Z,36.44
2023-04-04T12:40:41.178Z,35.66
2023-04-04T12:43:10.553Z,35.72
2023-04-04T12:45:40.677Z,35.30
2023-04-04T12:48:18.153Z,35.02
2023-04-04T12:50:53.919Z,34.35
2023-04-04T12:55:56.932Z,34.24
2023-04-04T12:58:34.251Z,33.53
2023-04-04T13:01:04.861Z,33.12
2023-04-04T13:03:35.183Z,32.91
2023-04-04T13:06:03.986Z,32.72
2023-04-04T13:08:32.644Z,32.61
2023-04-04T13:11:06.881Z,32.75
2023-04-04T13:13:36.727Z,32.81
2023-04-04T13:16:07.951Z,33.61
2023-04-04T13:18:38.597Z,33.81
2023-04-04T13:21:08.856Z,34.05
2023-04-04T13:23:39.725Z,33.31
2023-04-04T13:26:11.222Z,32.44
2023-04-04T13:28:39.841Z,33.20
2023-04-04T13:31:08.979Z,33.32
2023-04-04T13:33:38.032Z,33.22
2023-04-04T13:36:07.146Z,32.65
2023-04-04T13:38:35.812Z,32.23
2023-04-04T13:41:04.332Z,32.37
2023-04-04T13:43:34.157Z,32.80
2023-04-04T13:46:03.370Z,33.09
2023-04-04T13:48:31.891Z,32.94
2023-04-04T13:51:01.500Z,32.48
2023-04-04T13:53:32.041Z,32.16
2023-04-04T13:56:17.641Z,31.84
2023-04-04T13:58:51.636Z,30.86
2023-04-04T14:01:20.527Z,31.21
2023-04-04T14:03:51.967Z,30.93
2023-04-04T14:06:20.689Z,31.27
2023-04-04T14:08:50.828Z,30.70
2023-04-04T14:11:25.813Z,29.71
2023-04-04T14:13:57.793Z,29.56
2023-04-04T14:16:28.350Z,30.30
2023-04-04T14:18:58.003Z,30.08
2023-04-04T14:21:29.741Z,30.76
2023-04-04T14:23:59.252Z,30.95
2023-04-04T14:26:30.980Z,31.33
2023-04-04T14:29:04.065Z,32.22
2023-04-04T14:31:35.196Z,31.25
2023-04-04T14:34:06.048Z,30.28
2023-04-04T14:36:35.812Z,30.83
2023-04-04T14:39:06.506Z,31.45
2023-04-04T14:41:36.859Z,31.53
2023-04-04T14:44:15.373Z,32.42
2023-04-04T14:46:47.837Z,32.74
2023-04-04T14:49:16.502Z,32.82
2023-04-04T14:51:45.228Z,33.20
2023-04-04T14:54:15.310Z,32.49
2023-04-04T14:56:50.604Z,31.91
2023-04-04T14:59:21.216Z,32.42
2023-04-04T15:01:50.161Z,33.57
2023-04-04T15:04:18.525Z,33.86
2023-04-04T15:06:47.205Z,34.77
2023-04-04T15:09:16.762Z,35.48
2023-04-04T15:11:45.245Z,35.93
2023-04-04T15:14:14.344Z,35.60
2023-04-04T15:16:47.071Z,35.35
2023-04-04T15:19:16.315Z,35.46
2023-04-04T15:21:48.053Z,35.70
2023-04-04T15:24:18.779Z,35.45
2023-04-04T15:26:49.921Z,34.89
2023-04-04T15:29:18.435Z,35.27
2023-04-04T15:31:49.612Z,36.30
2023-04-04T15:34:20.341Z,35.98
2023-04-04T15:36:53.730Z,35.78
2023-04-04T15:39:23.208Z,34.57
2023-04-04T15:41:55.932Z,34.84
2023-04-04T15:44:29.310Z,34.45
2023-04-04T15:47:02.888Z,34.35
2023-04-04T15:49:33.853Z,34.62
2023-04-04T15:52:05.051Z,35.16
2023-04-04T15:54:34.469Z,35.40
2023-04-04T15:57:06.539Z,35.80
2023-04-04T15:59:35.507Z,36.20
2023-04-04T16:02:08.080Z,36.43
2023-04-04T16:04:37.397Z,36.90
2023-04-04T16:07:05.970Z,36.95
2023-04-04T16:09:35.051Z,37.41
2023-04-04T16:12:04.874Z,37.84
2023-04-04T16:14:34.225Z,38.23
2023-04-04T16:17:05.029Z,38.36
2023-04-04T16:19:38.025Z,38.57
2023-04-04T16:22:09.945Z,38.77
2023-04-04T16:24:39.157Z,38.96
2023-04-04T16:27:09.571Z,38.88
2023-04-04T16:29:39.422Z,38.90
2023-04-04T16:32:09.336Z,39.32
2023-04-04T16:34:39.615Z,39.36
2023-04-04T16:37:10.158Z,39.70
2023-04-04T16:39:42.867Z,38.75
2023-04-04T16:42:12.911Z,37.45
2023-04-04T16:44:42.121Z,35.90
2023-04-04T16:47:11.757Z,35.01
2023-04-04T16:49:44.990Z,35.42
2023-04-04T16:52:14.986Z,35.86
2023-04-04T16:54:43.575Z,36.45
2023-04-04T16:57:12.090Z,37.14
2023-04-04T16:59:46.670Z,37.86
2023-04-04T17:02:16.390Z,38.31
2023-04-04T17:04:47.107Z,38.81
2023-04-04T17:07:16.520Z,39.52
2023-04-04T17:09:50.645Z,39.87
2023-04-04T17:12:21.891Z,40.04
2023-04-04T17:14:53.853Z,40.41
2023-04-04T17:17:37.124Z,40.37
2023-04-04T17:20:19.992Z,40.87
2023-04-04T17:22:51.855Z,40.47
2023-04-04T17:25:29.341Z,40.69
2023-04-04T17:28:01.107Z,40.48
2023-04-04T17:30:29.580Z,40.41
2023-04-04T17:33:01.796Z,40.06
2023-04-04T17:35:35.822Z,39.60
2023-04-04T17:38:14.682Z,39.11
2023-04-04T17:40:49.510Z,39.18
2023-04-04T17:43:19.106Z,39.71
2023-04-04T17:45:48.110Z,39.86
2023-04-04T17:48:17.534Z,39.96
2023-04-04T17:50:52.059Z,40.47
2023-04-04T17:53:29.137Z,40.75
2023-04-04T17:55:58.169Z,41.20
2023-04-04T17:58:27.311Z,41.71
2023-04-04T18:00:57.838Z,41.74
2023-04-04T18:06:15.604Z,42.36
2023-04-04T18:08:46.835Z,42.74
2023-04-04T18:11:17.691Z,43.23
2023-04-04T18:13:47.311Z,43.13
2023-04-04T18:16:21.534Z,43.40
2023-04-04T18:18:57.322Z,44.02
2023-04-04T18:21:30.037Z,44.19
2023-04-04T18:24:03.111Z,44.19
2023-04-04T18:26:31.589Z,44.28
2023-04-04T18:29:00.677Z,44.41
2023-04-04T18:31:36.986Z,44.91
2023-04-04T18:34:05.613Z,44.78
2023-04-04T18:36:36.383Z,44.91
2023-04-04T18:39:06.569Z,44.84
2023-04-04T18:41:38.142Z,44.57
2023-04-04T18:44:15.032Z,44.86
2023-04-04T18:46:48.816Z,45.20
2023-04-04T18:49:18.731Z,45.38
2023-04-04T18:51:51.732Z,45.32
2023-04-04T18:54:31.298Z,45.40
2023-04-04T18:57:02.582Z,45.28
2023-04-04T18:59:31.016Z,45.38
2023-04-04T19:02:01.003Z,45.28
2023-04-04T19:04:30.818Z,45.46
2023-04-04T19:07:04.508Z,45.76
2023-04-04T19:09:33.315Z,46.18
2023-04-04T19:12:03.234Z,46.25
2023-04-04T19:14:33.123Z,46.39
2023-04-04T19:17:03.471Z,46.43
2023-04-04T19:19:34.819Z,46.51
2023-04-04T19:22:06.269Z,46.46
2023-04-04T19:24:36.184Z,46.48
2023-04-04T19:27:05.306Z,46.65
2023-04-04T19:32:32.928Z,46.84
2023-04-04T19:35:00.964Z,47.10
2023-04-04T19:37:30.573Z,47.36
2023-04-04T19:39:58.574Z,47.25
2023-04-04T19:42:28.218Z,47.28
2023-04-04T19:44:56.420Z,47.36
2023-04-04T19:47:26.194Z,47.25
2023-04-04T19:49:55.585Z,47.15
2023-04-04T19:52:24.172Z,47.32
2023-04-04T19:54:52.616Z,47.25
2023-04-04T19:57:21.246Z,47.42
2023-04-04T20:00:13.735Z,47.53
2023-04-04T20:02:56.934Z,47.30
2023-04-04T20:06:00.381Z,47.44
2023-04-04T20:08:37.987Z,48.03
2023-04-04T20:11:06.633Z,47.77
2023-04-04T20:13:35.814Z,47.81
2023-04-04T20:16:05.377Z,47.67
2023-04-04T20:18:34.130Z,47.54
2023-04-04T20:21:03.949Z,47.47
2023-04-04T20:23:34.094Z,47.34
2023-04-04T20:26:08.348Z,47.45
2023-04-04T20:28:36.429Z,47.03
2023-04-04T20:31:12.370Z,47.10
2023-04-04T20:33:41.456Z,47.12
2023-04-04T20:36:11.252Z,46.79
2023-04-04T20:38:41.900Z,47.01
2023-04-04T20:41:19.647Z,46.69
2023-04-04T20:43:52.247Z,46.82
2023-04-04T20:46:21.451Z,46.72
2023-04-04T20:48:50.539Z,46.66
2023-04-04T20:51:27.991Z,46.40
2023-04-04T20:53:58.061Z,46.52
2023-04-04T20:56:55.304Z,46.45
2023-04-04T20:59:31.742Z,46.50
2023-04-04T21:02:07.980Z,46.54
2023-04-04T21:04:36.420Z,46.65
2023-04-04T21:07:04.530Z,46.44
2023-04-04T21:09:33.954Z,46.45
2023-04-04T21:12:02.170Z,46.54
2023-04-04T21:14:35.633Z,46.51
2023-04-04T21:17:05.342Z,46.61
2023-04-04T21:19:35.034Z,46.66
2023-04-04T21:22:04.852Z,46.77
2023-04-04T21:24:36.581Z,46.56
2023-04-04T21:27:05.223Z,46.91
2023-04-04T21:29:33.206Z,46.82
2023-04-04T21:32:02.808Z,46.83
2023-04-04T21:34:31.025Z,46.79
2023-04-04T21:37:02.009Z,46.78
2023-04-04T21:39:30.643Z,46.75
2023-04-04T21:42:01.353Z,46.95
2023-04-04T21:44:29.390Z,47.04
2023-04-04T21:46:57.980Z,47.20
2023-04-04T21:49:26.218Z,47.14
2023-04-04T21:51:54.222Z,47.14
2023-04-04T21:54:22.202Z,47.00
2023-04-04T21:56:50.253Z,47.02
2023-04-04T21:59:20.020Z,46.83
2023-04-04T22:01:48.108Z,46.86
2023-04-04T22:04:16.153Z,47.07
2023-04-04T22:06:44.116Z,46.74
2023-04-04T22:09:12.112Z,46.92
2023-04-04T22:11:44.231Z,46.96
2023-04-04T22:14:18.000Z,47.10
2023-04-04T22:16:47.753Z,46.98
2023-04-04T22:19:15.851Z,46.89
2023-04-04T22:21:47.690Z,46.97
2023-04-04T22:24:17.775Z,46.87
2023-04-04T22:26:46.486Z,46.89
2023-04-04T22:29:14.467Z,46.95
2023-04-04T22:31:42.804Z,46.89
2023-04-04T22:34:14.711Z,46.95
2023-04-04T22:36:43.879Z,46.87
2023-04-04T22:39:16.116Z,47.03
2023-04-04T22:41:44.403Z,47.13
2023-04-04T22:44:12.365Z,46.98
2023-04-04T22:46:41.063Z,47.16
2023-04-04T22:49:09.006Z,47.24
2023-04-04T22:51:45.109Z,47.23
2023-04-04T22:54:14.533Z,47.46
2023-04-04T22:56:42.822Z,47.38
2023-04-04T22:59:11.226Z,47.55
2023-04-04T23:01:39.452Z,47.54
2023-04-04T23:04:07.552Z,47.57
2023-04-04T23:06:35.850Z,47.48
2023-04-04T23:09:05.906Z,47.43
2023-04-04T23:11:33.845Z,47.44
2023-04-04T23:14:01.867Z,47.49
2023-04-04T23:16:29.923Z,47.36
2023-04-04T23:18:58.062Z,47.67
2023-04-04T23:21:26.114Z,48.08
2023-04-04T23:23:54.095Z,48.04
2023-04-04T23:26:23.500Z,48.13
2023-04-04T23:28:51.756Z,48.00
2023-04-04T23:31:20.446Z,47.81
2023-04-04T23:33:48.644Z,47.96
2023-04-04T23:36:16.685Z,47.89
2023-04-04T23:38:44.697Z,47.99
2023-04-04T23:41:12.633Z,47.98
2023-04-04T23:43:43.260Z,47.76
2023-04-04T23:46:14.373Z,47.71
2023-04-04T23:48:42.538Z,47.91
2023-04-04T23:51:10.949Z,47.86
2023-04-04T23:53:39.042Z,47.73
2023-04-04T23:56:07.746Z,47.92
2023-04-04T23:58:35.762Z,47.88
